Time;durP1;ratioP1;P1;durP2;ratioP2;P2;SDS_P1;SDS_P2;PMS_P1;PMS_P2;Temp;Humidity;BMP_temperature;BMP_pressure;BME280_temperature;BME280_humidity;BME280_pressure;Samples;Min_cycle;Max_cycle;Signal;HPM_P1;HPM_P2
2024/01/19 00:00:00;;;;;;;5.82;1.48;;;;;;;-1.16;100.00;100406.56;4941265;28;20186;-46
2024/01/19 00:02:25;;;;;;;4.32;1.38;;;;;;;-1.17;100.00;100411.81;4943040;28;20574;-45
2024/01/19 00:04:51;;;;;;;4.45;1.38;;;;;;;-1.15;100.00;100426.72;4942298;28;20203;-46
2024/01/19 00:07:16;;;;;;;5.40;1.33;;;;;;;-1.13;100.00;100416.22;4945654;28;20187;-45
2024/01/19 00:09:42;;;;;;;6.60;1.40;;;;;;;-1.16;100.00;100421.44;4944699;28;20226;-44
2024/01/19 00:12:07;;;;;;;7.35;1.42;;;;;;;-1.14;100.00;100415.31;4941820;28;20190;-45
2024/01/19 00:14:33;;;;;;;2.40;1.38;;;;;;;-1.15;100.00;100420.59;4944341;28;20236;-45
2024/01/19 00:16:59;;;;;;;6.75;1.40;;;;;;;-1.08;100.00;100411.84;4941322;28;20195;-44
2024/01/19 00:19:24;;;;;;;4.80;1.48;;;;;;;-1.08;100.00;100417.97;4939485;28;20518;-46
2024/01/19 00:21:50;;;;;;;4.90;1.15;;;;;;;-1.04;100.00;100432.88;4939851;28;20183;-47
2024/01/19 00:24:16;;;;;;;3.30;1.40;;;;;;;-0.92;100.00;100418.91;4933649;28;20214;-46
2024/01/19 00:26:43;;;;;;;9.20;1.42;;;;;;;-0.97;100.00;100412.72;4947343;28;20179;-46
2024/01/19 00:29:08;;;;;;;2.28;1.33;;;;;;;-0.98;100.00;100411.00;4942864;28;20187;-45
2024/01/19 00:31:34;;;;;;;6.38;1.20;;;;;;;-1.08;100.00;100412.69;4944299;28;20278;-47
2024/01/19 00:34:00;;;;;;;4.35;1.40;;;;;;;-1.13;100.00;100413.59;4945265;28;20206;-47
2024/01/19 00:36:25;;;;;;;5.38;1.73;;;;;;;-1.14;100.00;100427.59;4943009;28;20815;-45
2024/01/19 00:38:52;;;;;;;4.70;1.48;;;;;;;-1.15;100.00;100426.72;4943690;28;20197;-45
2024/01/19 00:41:18;;;;;;;7.10;1.42;;;;;;;-1.14;100.00;100423.19;4936678;28;20354;-48
2024/01/19 00:43:43;;;;;;;2.85;1.33;;;;;;;-1.07;100.00;100424.13;4942948;28;20193;-46
2024/01/19 00:46:09;;;;;;;2.10;1.20;;;;;;;-1.04;100.00;100422.34;4944716;28;20274;-46
2024/01/19 00:51:59;;;;;;;3.15;1.13;;;;;;;-0.98;100.00;100425.91;4935784;28;20199;-46
2024/01/19 00:54:24;;;;;;;3.95;0.90;;;;;;;-0.96;100.00;100435.53;4939794;28;20178;-46
2024/01/19 00:56:50;;;;;;;4.70;0.57;;;;;;;-0.90;100.00;100438.16;4944050;29;20711;-45
2024/01/19 00:59:15;;;;;;;4.45;0.73;;;;;;;-0.87;100.00;100422.41;4939818;29;20189;-44
2024/01/19 01:01:42;;;;;;;1.80;0.95;;;;;;;-0.94;100.00;100411.84;4940025;29;20190;-45
2024/01/19 01:04:08;;;;;;;5.55;0.80;;;;;;;-0.99;100.00;100419.72;4940854;29;20194;-44
2024/01/19 01:06:33;;;;;;;2.90;0.90;;;;;;;-1.01;100.00;100423.25;4941092;28;20199;-44
2024/01/19 01:08:59;;;;;;;3.50;0.80;;;;;;;-1.05;100.00;100423.25;4935989;29;20548;-45
2024/01/19 01:11:24;;;;;;;5.28;1.10;;;;;;;-1.09;100.00;100425.88;4936322;29;20318;-46
2024/01/19 01:13:50;;;;;;;7.13;1.20;;;;;;;-1.07;100.00;100422.38;4934995;29;20685;-45
2024/01/19 01:16:15;;;;;;;1.80;0.80;;;;;;;-0.98;100.00;100421.50;4941156;28;20318;-44
2024/01/19 01:18:41;;;;;;;2.58;0.90;;;;;;;-0.96;100.00;100425.03;4939415;29;20190;-45
2024/01/19 01:21:07;;;;;;;5.47;1.10;;;;;;;-0.92;100.00;100428.50;4941230;29;20191;-44
2024/01/19 01:23:32;;;;;;;4.80;0.65;;;;;;;-0.94;100.00;100438.16;4924337;29;20178;-44
2024/01/19 01:25:58;;;;;;;5.65;0.82;;;;;;;-0.89;100.00;100444.31;4939672;28;20277;-47
2024/01/19 01:28:23;;;;;;;7.53;0.98;;;;;;;-0.89;100.00;100471.47;4941590;28;20278;-45
2024/01/19 01:30:49;;;;;;;5.00;0.95;;;;;;;-0.87;100.00;100463.59;4939311;28;20190;-44
2024/01/19 01:33:14;;;;;;;7.10;0.93;;;;;;;-0.87;100.00;100472.38;4937524;28;20195;-45
2024/01/19 01:35:40;;;;;;;2.35;0.95;;;;;;;-0.88;100.00;100467.09;4939971;28;20681;-48
2024/01/19 01:38:05;;;;;;;7.60;1.55;;;;;;;-0.84;100.00;100466.22;4945227;28;20658;-45
2024/01/19 01:40:31;;;;;;;3.30;0.70;;;;;;;-0.91;100.00;100469.72;4943405;28;20629;-45
2024/01/19 01:43:01;;;;;;;4.30;0.77;;;;;;;-0.81;100.00;100458.34;4942541;28;20266;-45
2024/01/19 01:45:27;;;;;;;1.63;0.50;;;;;;;-0.89;100.00;100457.47;4925159;28;20287;-46
2024/01/19 01:47:53;;;;;;;5.13;0.93;;;;;;;-0.95;100.00;100449.56;4941842;28;20213;-47
2024/01/19 01:50:19;;;;;;;2.95;0.60;;;;;;;-0.97;100.00;100435.53;4942124;28;20214;-46
2024/01/19 01:52:45;;;;;;;2.25;0.93;;;;;;;-0.97;100.00;100452.16;4938202;28;20179;-45
2024/01/19 01:55:11;;;;;;;2.00;0.77;;;;;;;-0.90;100.00;100455.69;4942000;28;20187;-45
2024/01/19 01:57:36;;;;;;;3.30;0.45;;;;;;;-1.00;100.00;100452.19;4947596;28;20202;-44
2024/01/19 02:00:02;;;;;;;3.13;0.50;;;;;;;-0.97;100.00;100456.56;4947710;28;20187;-46
2024/01/19 02:02:29;;;;;;;2.15;0.60;;;;;;;-0.96;100.00;100467.09;4945035;28;20189;-46
2024/01/19 02:04:55;;;;;;;2.80;0.50;;;;;;;-0.93;100.00;100488.13;4945409;28;20210;-46
2024/01/19 02:07:20;;;;;;;3.30;0.55;;;;;;;-0.89;100.00;100487.25;4933974;28;20185;-46
2024/01/19 02:09:46;;;;;;;1.80;0.80;;;;;;;-0.88;100.00;100489.00;4923621;29;20584;-44
2024/01/19 02:12:12;;;;;;;3.05;0.40;;;;;;;-0.88;100.00;100467.09;4940257;29;20282;-44
2024/01/19 02:14:37;;;;;;;2.05;0.70;;;;;;;-0.96;100.00;100466.19;4943877;28;20253;-44
2024/01/19 02:17:03;;;;;;;3.78;0.77;;;;;;;-0.98;100.00;100465.34;4940619;29;20266;-46
2024/01/19 02:19:28;;;;;;;1.73;0.45;;;;;;;-0.94;100.00;100470.59;4942742;29;20203;-45
2024/01/19 02:21:54;;;;;;;6.45;0.88;;;;;;;-0.99;100.00;100467.06;4943698;29;20673;-44
2024/01/19 02:24:21;;;;;;;4.68;0.60;;;;;;;-1.05;100.00;100464.41;4941973;28;20290;-45
2024/01/19 02:26:46;;;;;;;2.83;0.77;;;;;;;-1.07;100.00;100463.56;4941129;28;20186;-44
2024/01/19 02:29:12;;;;;;;2.35;0.70;;;;;;;-1.11;100.00;100462.66;4940631;28;20872;-44
2024/01/19 02:31:37;;;;;;;4.32;0.80;;;;;;;-1.19;100.00;100487.16;4942478;28;20186;-46
2024/01/19 02:34:03;;;;;;;3.40;0.82;;;;;;;-1.20;100.00;100475.78;4944303;28;20265;-47
2024/01/19 02:36:28;;;;;;;1.02;0.30;;;;;;;-1.15;100.00;100468.78;4942215;28;20211;-45
2024/01/19 02:38:54;;;;;;;0.70;0.50;;;;;;;-1.20;100.00;100472.25;4945176;28;20575;-46
2024/01/19 02:41:19;;;;;;;1.83;0.50;;;;;;;-1.16;100.00;100477.53;4939143;28;20195;-47
2024/01/19 02:43:45;;;;;;;2.63;0.57;;;;;;;-1.22;100.00;100480.16;4942570;28;20210;-47
2024/01/19 02:46:13;;;;;;;1.45;0.60;;;;;;;-1.28;100.00;100475.72;4942662;28;20732;-48
2024/01/19 02:48:39;;;;;;;1.65;0.77;;;;;;;-1.30;100.00;100466.09;4945460;28;20195;-46
2024/01/19 02:51:04;;;;;;;4.38;0.70;;;;;;;-1.32;100.00;100457.31;4939576;28;20277;-46
2024/01/19 02:53:30;;;;;;;3.33;0.60;;;;;;;-1.33;100.00;100469.59;4949843;28;20195;-46
2024/01/19 02:55:55;;;;;;;1.92;0.57;;;;;;;-1.40;100.00;100461.66;4942709;28;20627;-46
2024/01/19 02:58:21;;;;;;;1.98;0.70;;;;;;;-1.37;100.00;100459.94;4943461;28;20650;-46
2024/01/19 03:00:46;;;;;;;1.02;0.35;;;;;;;-1.38;100.00;100462.53;4943770;28;20186;-45
2024/01/19 03:03:11;;;;;;;2.30;0.60;;;;;;;-1.40;100.00;100465.19;4944251;28;20179;-45
2024/01/19 03:05:37;;;;;;;1.60;0.40;;;;;;;-1.47;100.00;100461.63;4924016;28;20207;-46
2024/01/19 03:08:03;;;;;;;2.47;0.60;;;;;;;-1.42;100.00;100466.03;4939973;28;20195;-46
2024/01/19 03:10:28;;;;;;;5.97;0.75;;;;;;;-1.48;100.00;100470.38;4940971;28;20258;-46
2024/01/19 03:12:54;;;;;;;6.55;0.50;;;;;;;-1.36;100.00;100471.31;4940724;28;20257;-46
2024/01/19 03:15:19;;;;;;;0.50;0.40;;;;;;;-1.38;100.00;100473.06;4941441;28;20317;-48
2024/01/19 03:21:32;;;;;;;1.40;0.50;;;;;;;-1.16;100.00;100481.91;4939789;29;20186;-46
2024/01/19 03:23:57;;;;;;;2.00;0.60;;;;;;;-1.16;100.00;100464.41;4941970;29;20681;-46
2024/01/19 03:26:23;;;;;;;3.03;0.57;;;;;;;-1.12;100.00;100471.41;4940076;29;20202;-48
2024/01/19 03:28:48;;;;;;;7.70;0.50;;;;;;;-1.06;100.00;100475.81;4942465;29;20203;-46
2024/01/19 03:31:14;;;;;;;5.10;0.65;;;;;;;-1.05;100.00;100473.19;4940198;29;20188;-45
2024/01/19 03:33:39;;;;;;;1.15;0.43;;;;;;;-1.01;100.00;100483.72;4938516;29;20525;-47
2024/01/19 03:36:05;;;;;;;2.92;0.57;;;;;;;-0.96;100.00;100493.38;4939860;28;20294;-45
2024/01/19 03:38:31;;;;;;;0.35;0.35;;;;;;;-0.88;100.00;100496.91;4941626;28;20218;-46
2024/01/19 03:40:56;;;;;;;2.33;0.63;;;;;;;-0.91;100.00;100509.19;4940241;28;20217;-46
2024/01/19 03:43:22;;;;;;;1.52;0.50;;;;;;;-0.85;100.00;100503.94;4945600;28;20274;-47
2024/01/19 03:45:47;;;;;;;1.38;0.50;;;;;;;-0.96;100.00;100503.91;4941775;28;20214;-45
2024/01/19 03:48:12;;;;;;;4.55;0.95;;;;;;;-0.96;100.00;100509.16;4943326;28;20712;-46
2024/01/19 03:50:38;;;;;;;5.85;0.50;;;;;;;-1.00;100.00;100515.28;4938743;28;20305;-47
2024/01/19 03:53:04;;;;;;;2.05;0.70;;;;;;;-1.04;100.00;100514.38;4941598;28;20175;-46
2024/01/19 03:55:29;;;;;;;2.42;0.57;;;;;;;-0.99;100.00;100524.03;4939605;28;20207;-45
2024/01/19 03:57:54;;;;;;;2.08;0.63;;;;;;;-0.99;100.00;100516.16;4941479;28;20287;-46
2024/01/19 04:00:20;;;;;;;5.88;0.60;;;;;;;-1.02;100.00;100503.00;4940313;28;20183;-46
2024/01/19 04:02:45;;;;;;;5.40;1.33;;;;;;;-1.11;100.00;100511.72;4942878;28;20226;-46
2024/01/19 04:05:11;;;;;;;3.85;1.05;;;;;;;-1.19;100.00;100497.66;4941973;28;20194;-46
2024/01/19 04:07:37;;;;;;;5.78;1.05;;;;;;;-1.23;100.00;100523.06;4920933;28;20191;-47
2024/01/19 04:10:02;;;;;;;1.48;0.60;;;;;;;-1.25;100.00;100504.66;4941503;28;20214;-45
2024/01/19 04:12:28;;;;;;;1.98;0.98;;;;;;;-1.18;100.00;100508.19;4941764;28;20462;-48
2024/01/19 04:14:53;;;;;;;4.32;1.10;;;;;;;-1.22;100.00;100501.16;4941582;28;20234;-45
2024/01/19 04:17:19;;;;;;;2.05;1.20;;;;;;;-1.17;100.00;100517.84;4934520;28;20238;-45
2024/01/19 04:19:44;;;;;;;2.50;0.90;;;;;;;-1.08;100.00;100519.63;4942462;28;20270;-46
2024/01/19 04:22:10;;;;;;;4.43;1.00;;;;;;;-1.05;100.00;100519.63;4943571;28;20197;-45
2024/01/19 04:24:35;;;;;;;4.40;0.85;;;;;;;-0.98;100.00;100524.06;4940345;28;20211;-45
2024/01/19 04:27:01;;;;;;;3.03;0.90;;;;;;;-1.05;100.00;100519.63;4940816;28;20215;-46
2024/01/19 04:29:26;;;;;;;6.90;1.20;;;;;;;-1.12;100.00;100512.59;4942187;28;20199;-46
2024/01/19 04:31:52;;;;;;;3.80;1.17;;;;;;;-1.08;100.00;100514.38;4937727;28;20211;-46
2024/01/19 04:34:17;;;;;;;7.28;0.77;;;;;;;-1.07;100.00;100530.16;4939587;28;20175;-46
2024/01/19 04:36:43;;;;;;;2.35;1.05;;;;;;;-1.06;100.00;100533.66;4940152;28;20211;-47
2024/01/19 04:39:09;;;;;;;1.05;0.90;;;;;;;-1.08;100.00;100528.38;4939252;28;20665;-45
2024/01/19 04:41:34;;;;;;;3.95;0.90;;;;;;;-1.13;100.00;100548.53;4938013;28;20254;-46
2024/01/19 04:43:59;;;;;;;4.38;0.98;;;;;;;-1.13;100.00;100542.41;4939717;28;20218;-47
2024/01/19 04:46:25;;;;;;;4.70;0.73;;;;;;;-1.21;100.00;100544.97;4937398;28;20686;-47
2024/01/19 04:48:50;;;;;;;5.32;1.42;;;;;;;-1.26;100.00;100552.84;4942291;28;20175;-46
2024/01/19 04:51:16;;;;;;;6.13;1.10;;;;;;;-1.16;100.00;100550.25;4924284;29;20187;-46
2024/01/19 04:53:41;;;;;;;5.07;1.05;;;;;;;-1.19;100.00;100558.13;4940424;28;20944;-45
2024/01/19 04:56:07;;;;;;;3.58;0.98;;;;;;;-1.15;100.00;100555.53;4940567;28;20211;-46
2024/01/19 04:58:34;;;;;;;6.50;1.50;;;;;;;-1.14;100.00;100562.53;4920866;29;20238;-45
2024/01/19 05:01:00;;;;;;;4.90;1.33;;;;;;;-1.23;100.00;100566.88;4934865;28;20188;-47
2024/01/19 05:03:26;;;;;;;6.22;1.08;;;;;;;-1.23;100.00;100566.88;4938645;28;20179;-45
2024/01/19 05:05:51;;;;;;;14.98;1.80;;;;;;;-1.20;100.00;100577.38;4936663;28;20772;-47
2024/01/19 05:08:17;;;;;;;12.13;1.42;;;;;;;-1.16;100.00;100587.03;4942178;28;20186;-47
2024/01/19 05:10:43;;;;;;;6.07;1.67;;;;;;;-1.28;100.00;100601.00;4936413;28;20183;-46
2024/01/19 05:13:08;;;;;;;4.55;1.35;;;;;;;-1.31;100.00;100596.63;4939563;28;20198;-47
2024/01/19 05:15:34;;;;;;;3.20;0.98;;;;;;;-1.28;100.00;100601.00;4937238;28;20207;-45
2024/01/19 05:18:00;;;;;;;8.35;1.67;;;;;;;-1.23;100.00;100601.91;4940257;28;20193;-45
2024/01/19 05:20:26;;;;;;;9.18;1.38;;;;;;;-1.20;100.00;100609.81;4936173;28;20286;-46
2024/01/19 05:22:52;;;;;;;5.22;1.20;;;;;;;-1.19;100.00;100618.59;4939730;28;20210;-46
2024/01/19 05:25:18;;;;;;;6.53;1.20;;;;;;;-1.15;100.00;100617.75;4940929;28;20248;-45
2024/01/19 05:27:51;;;;;;;6.55;1.50;;;;;;;-1.05;100.00;100611.63;4942455;28;20274;-46
2024/01/19 05:34:03;;;;;;;6.13;1.27;;;;;;;-1.00;100.00;100623.09;4931505;29;20673;-45
2024/01/19 05:36:28;;;;;;;9.18;1.45;;;;;;;-0.98;100.00;100633.63;4939784;29;20214;-46
2024/01/19 05:38:54;;;;;;;13.48;1.70;;;;;;;-1.05;100.00;100636.22;4933210;29;20196;-48
2024/01/19 05:41:20;;;;;;;6.68;1.35;;;;;;;-1.01;100.00;100636.22;4939071;29;20206;-45
2024/01/19 05:43:46;;;;;;;12.32;1.70;;;;;;;-0.97;100.00;100638.88;4937375;29;20179;-45
2024/01/19 05:46:13;;;;;;;8.10;1.40;;;;;;;-0.98;100.00;100639.75;4940691;28;20298;-46
2024/01/19 05:48:38;;;;;;;12.10;1.98;;;;;;;-0.99;100.00;100642.38;4938268;28;20176;-46
2024/01/19 05:54:20;;;;;;;9.95;2.20;;;;;;;-1.21;100.00;100662.38;4899499;28;20198;-47
2024/01/19 05:56:45;;;;;;;11.23;2.03;;;;;;;-1.25;100.00;100659.75;4941261;29;20547;-47
2024/01/19 05:59:11;;;;;;;8.45;1.90;;;;;;;-1.27;100.00;100665.81;4937999;29;20655;-47
2024/01/19 06:01:36;;;;;;;8.05;1.70;;;;;;;-1.22;100.00;100673.75;4935339;29;20216;-46
2024/01/19 06:04:02;;;;;;;7.85;1.77;;;;;;;-1.20;100.00;100679.91;4938560;29;20653;-46
2024/01/19 06:06:27;;;;;;;8.60;1.35;;;;;;;-1.20;100.00;100693.03;4937278;29;20258;-45
2024/01/19 06:08:53;;;;;;;6.43;1.92;;;;;;;-1.20;100.00;100680.81;4937454;29;20662;-47
2024/01/19 06:11:18;;;;;;;5.57;1.80;;;;;;;-1.26;100.00;100689.50;4937327;29;20511;-47
2024/01/19 06:13:45;;;;;;;6.63;1.50;;;;;;;-1.34;100.00;100691.19;4938243;29;20199;-47
2024/01/19 06:16:10;;;;;;;7.03;1.50;;;;;;;-1.47;100.00;100687.56;4937216;29;20210;-47
2024/01/19 06:18:36;;;;;;;8.95;1.70;;;;;;;-1.41;100.00;100688.50;4936958;29;20192;-45
2024/01/19 06:21:01;;;;;;;13.68;1.90;;;;;;;-1.49;100.00;100685.81;4937677;29;20188;-47
2024/01/19 06:23:27;;;;;;;9.43;1.70;;;;;;;-1.51;100.00;100701.56;4942256;29;20569;-47
2024/01/19 06:25:53;;;;;;;10.18;2.38;;;;;;;-1.50;100.00;100705.06;4937318;28;20294;-47
2024/01/19 06:28:18;;;;;;;7.32;1.50;;;;;;;-1.55;100.00;100709.38;4916071;29;20290;-45
2024/01/19 06:30:45;;;;;;;9.60;1.65;;;;;;;-1.55;100.00;100719.91;4938783;28;20175;-45
2024/01/19 06:33:11;;;;;;;13.40;1.60;;;;;;;-1.53;100.00;100718.16;4937702;28;20195;-46
2024/01/19 06:35:37;;;;;;;5.90;1.27;;;;;;;-1.58;100.00;100720.75;4942210;28;20769;-46
2024/01/19 06:38:06;;;;;;;11.10;1.70;;;;;;;-1.61;100.00;100727.75;4938614;28;20189;-45
2024/01/19 06:40:32;;;;;;;11.30;1.25;;;;;;;-1.60;100.00;100734.75;4939837;28;20186;-46
2024/01/19 06:42:57;;;;;;;16.40;2.03;;;;;;;-1.49;100.00;100739.25;4945077;28;20445;-48
2024/01/19 06:45:22;;;;;;;8.52;1.30;;;;;;;-1.62;100.00;100739.09;4937921;28;20211;-47
2024/01/19 06:47:48;;;;;;;8.02;1.60;;;;;;;-1.75;100.00;100752.13;4945753;28;20670;-45
2024/01/19 06:50:13;;;;;;;7.95;1.42;;;;;;;-1.70;100.00;100765.31;4942210;28;20227;-46
2024/01/19 06:52:39;;;;;;;14.88;1.50;;;;;;;-1.64;100.00;100764.47;4944288;28;20561;-45
2024/01/19 06:55:05;;;;;;;8.95;1.50;;;;;;;-1.64;100.00;100761.84;4946601;28;20333;-46
2024/01/19 06:57:32;;;;;;;7.63;1.20;;;;;;;-1.64;100.00;100769.72;4944278;28;20246;-47
2024/01/19 06:59:57;;;;;;;7.35;1.40;;;;;;;-1.75;100.00;100772.22;4949111;28;20187;-47
2024/01/19 07:02:23;;;;;;;6.75;1.60;;;;;;;-1.79;100.00;100773.06;4942496;28;20290;-46
2024/01/19 07:04:49;;;;;;;4.57;1.20;;;;;;;-1.72;100.00;100786.28;4937831;28;20211;-46
2024/01/19 07:07:15;;;;;;;7.60;1.45;;;;;;;-1.77;100.00;100784.47;4940128;28;20198;-46
2024/01/19 07:09:41;;;;;;;4.32;1.25;;;;;;;-1.74;100.00;100789.78;4943518;28;20683;-45
2024/01/19 07:12:06;;;;;;;4.05;1.13;;;;;;;-1.78;100.00;100788.84;4945746;28;20186;-45
2024/01/19 07:14:32;;;;;;;7.10;1.75;;;;;;;-1.70;100.00;100787.19;4942215;28;20190;-46
2024/01/19 07:16:57;;;;;;;5.78;1.38;;;;;;;-1.76;100.00;100797.63;4941764;28;20233;-45
2024/01/19 07:19:24;;;;;;;6.20;1.23;;;;;;;-1.76;100.00;100808.13;4940735;28;20197;-44
2024/01/19 07:21:50;;;;;;;6.85;1.35;;;;;;;-1.78;100.00;100803.72;4939530;28;20182;-47
2024/01/19 07:24:15;;;;;;;5.82;1.08;;;;;;;-1.80;100.00;100811.56;4944779;28;20231;-46
2024/01/19 07:26:41;;;;;;;2.38;1.00;;;;;;;-1.72;100.00;100825.69;4941948;28;20190;-46
2024/01/19 07:29:07;;;;;;;3.78;0.95;;;;;;;-1.79;100.00;100828.22;4942095;28;20189;-46
2024/01/19 07:31:41;;;;;;;7.78;1.48;;;;;;;-1.82;100.00;100836.94;4952916;28;20258;-42
2024/01/19 07:34:07;;;;;;;4.32;1.20;;;;;;;-1.81;100.00;100833.47;4952659;29;20206;-42
2024/01/19 07:36:32;;;;;;;2.97;0.95;;;;;;;-1.78;100.00;100836.13;4953240;29;20241;-42
2024/01/19 07:38:58;;;;;;;6.28;1.33;;;;;;;-1.85;100.00;100833.41;4954135;28;20191;-44
2024/01/19 07:41:23;;;;;;;3.08;0.95;;;;;;;-1.81;100.00;100846.59;4957161;28;20553;-43
2024/01/19 07:43:49;;;;;;;6.55;1.38;;;;;;;-1.78;100.00;100837.88;4959645;28;20205;-43
2024/01/19 07:46:14;;;;;;;10.63;1.17;;;;;;;-1.75;100.00;100846.69;4955806;28;20264;-44
2024/01/19 07:48:40;;;;;;;7.63;1.30;;;;;;;-1.77;100.00;100850.13;4945609;28;20180;-41
2024/01/19 07:51:06;;;;;;;4.70;1.63;;;;;;;-1.82;100.00;100855.31;4953195;28;20218;-41
2024/01/19 07:53:31;;;;;;;8.80;1.60;;;;;;;-1.76;100.00;100854.53;4951107;28;20186;-41
2024/01/19 07:55:57;;;;;;;4.47;1.10;;;;;;;-1.73;100.00;100857.19;4954842;28;20241;-44
2024/01/19 07:58:23;;;;;;;9.00;1.80;;;;;;;-1.75;100.00;100861.53;4953250;29;20633;-45
2024/01/19 08:00:48;;;;;;;4.65;1.45;;;;;;;-1.77;100.00;100861.53;4950262;29;20218;-43
2024/01/19 08:03:15;;;;;;;7.65;1.10;;;;;;;-1.66;100.00;100870.41;4945437;28;20664;-43
2024/01/19 08:05:41;;;;;;;4.45;1.25;;;;;;;-1.45;100.00;100874.16;4963983;28;20195;-43
2024/01/19 08:08:06;;;;;;;9.80;1.40;;;;;;;-1.45;100.00;100879.41;4950031;28;20194;-43
2024/01/19 08:10:36;;;;;;;6.18;1.52;;;;;;;-1.30;100.00;100887.47;4958560;28;20748;-42
2024/01/19 08:13:04;;;;;;;3.67;1.00;;;;;;;-1.29;100.00;100878.72;4952334;29;20186;-44
2024/01/19 08:15:30;;;;;;;6.95;1.30;;;;;;;-1.27;100.00;100881.34;4948528;28;20211;-42
2024/01/19 08:17:55;;;;;;;5.43;1.25;;;;;;;-1.14;100.00;100887.63;4950041;28;20205;-42
2024/01/19 08:20:24;;;;;;;4.03;1.42;;;;;;;-1.25;100.00;100888.41;4948450;29;20194;-43
2024/01/19 08:22:52;;;;;;;8.80;1.50;;;;;;;-1.39;100.00;100886.50;4952778;28;20167;-41
2024/01/19 08:25:18;;;;;;;6.55;1.05;;;;;;;-1.32;100.00;100893.56;4950645;28;20289;-45
2024/01/19 08:27:43;;;;;;;8.85;1.90;;;;;;;-1.30;100.00;100899.72;4951136;28;20234;-44
2024/01/19 08:30:10;;;;;;;3.65;1.00;;;;;;;-1.22;100.00;100905.97;4954955;28;20725;-41
2024/01/19 08:32:35;;;;;;;9.15;1.77;;;;;;;-1.23;100.00;100912.06;4961474;28;20508;-46
2024/01/19 08:35:08;;;;;;;7.85;1.45;;;;;;;-1.19;100.00;100903.34;4960452;28;20214;-42
2024/01/19 08:37:38;;;;;;;10.52;1.67;;;;;;;-1.16;100.00;100907.75;4948162;29;20191;-44
2024/01/19 08:40:07;;;;;;;10.68;1.88;;;;;;;-1.11;100.00;100917.47;4959203;28;20381;-41
2024/01/19 08:42:33;;;;;;;3.83;0.98;;;;;;;-1.07;100.00;100921.03;4952772;28;20191;-42
2024/01/19 08:44:59;;;;;;;19.05;1.75;;;;;;;-0.90;100.00;100922.06;4942335;28;20245;-43
2024/01/19 08:47:28;;;;;;;7.53;1.42;;;;;;;-0.83;100.00;100915.13;4961727;28;20178;-43
2024/01/19 08:49:53;;;;;;;12.13;1.80;;;;;;;-0.77;100.00;100923.06;4955643;28;20194;-44
2024/01/19 08:52:19;;;;;;;10.80;1.50;;;;;;;-0.66;100.00;100920.53;4955925;28;20558;-43
2024/01/19 08:54:44;;;;;;;9.25;1.42;;;;;;;-0.54;100.00;100918.03;4959241;28;20255;-44
2024/01/19 08:57:10;;;;;;;8.73;1.27;;;;;;;-0.35;100.00;100926.06;4951963;28;20202;-43
2024/01/19 08:59:36;;;;;;;17.30;1.73;;;;;;;-0.35;100.00;100923.41;4938825;29;20646;-42
2024/01/19 09:02:01;;;;;;;8.98;1.92;;;;;;;-0.39;100.00;100912.00;4964538;28;20555;-43
2024/01/19 09:04:27;;;;;;;12.13;1.85;;;;;;;-0.28;100.00;100910.34;4951450;28;20242;-44
2024/01/19 09:06:55;;;;;;;8.52;2.17;;;;;;;-0.02;100.00;100913.16;4954274;28;20197;-44
2024/01/19 09:09:21;;;;;;;4.82;1.40;;;;;;;-0.05;100.00;100925.41;4956400;28;20186;-41
2024/01/19 09:11:46;;;;;;;11.10;2.00;;;;;;;-0.25;100.00;100918.25;4949863;28;20250;-42
2024/01/19 09:14:13;;;;;;;10.48;2.10;;;;;;;-0.31;100.00;100922.59;4953719;28;20194;-43
2024/01/19 09:16:43;;;;;;;9.60;2.40;;;;;;;-0.34;100.00;100923.44;4949247;28;20709;-43
2024/01/19 09:19:09;;;;;;;15.43;2.03;;;;;;;-0.29;100.00;100923.47;4936299;28;20697;-43
2024/01/19 09:21:34;;;;;;;9.05;1.83;;;;;;;-0.06;100.00;100932.44;4950833;28;20175;-44
2024/01/19 09:23:59;;;;;;;15.07;2.25;;;;;;;0.18;100.00;100930.81;4950907;28;20194;-42
2024/01/19 09:26:25;;;;;;;4.57;1.88;;;;;;;0.14;100.00;100927.28;4951880;28;20240;-44
2024/01/19 09:28:51;;;;;;;12.80;2.40;;;;;;;0.17;100.00;100932.56;4951804;28;20543;-42
2024/01/19 09:31:16;;;;;;;10.95;1.67;;;;;;;0.38;100.00;100926.53;4949075;29;20506;-41
2024/01/19 09:33:42;;;;;;;7.18;1.38;;;;;;;0.28;100.00;100930.00;4949891;28;20214;-41
2024/01/19 09:36:08;;;;;;;14.07;2.00;;;;;;;0.29;100.00;100923.84;4952524;28;20206;-41
2024/01/19 09:38:35;;;;;;;10.15;1.45;;;;;;;0.40;100.00;100926.56;4951686;29;20187;-44
2024/01/19 09:41:03;;;;;;;9.40;2.40;;;;;;;0.62;100.00;100932.81;4957256;28;20194;-42
2024/01/19 09:43:33;;;;;;;7.60;1.70;;;;;;;0.64;100.00;100935.44;4956470;28;20214;-43
2024/01/19 09:46:04;;;;;;;8.52;1.98;;;;;;;0.70;100.00;100936.34;4951601;28;20195;-43
2024/01/19 09:48:39;;;;;;;10.50;2.05;;;;;;;0.57;100.00;100940.69;4945416;28;20199;-42
2024/01/19 09:51:07;;;;;;;14.23;1.88;;;;;;;0.59;100.00;100932.78;4954467;28;20186;-44
2024/01/19 09:53:39;;;;;;;14.95;1.70;;;;;;;0.45;100.00;100945.03;4956316;28;20214;-43
2024/01/19 09:56:07;;;;;;;9.65;1.77;;;;;;;0.63;100.00;100941.59;4951661;28;20484;-43
2024/01/19 09:58:33;;;;;;;9.93;1.98;;;;;;;0.68;100.00;100948.66;4954111;28;20257;-43
2024/01/19 10:01:00;;;;;;;5.18;1.25;;;;;;;0.74;100.00;100955.69;4953854;28;20604;-43
2024/01/19 10:03:28;;;;;;;10.07;1.52;;;;;;;0.51;100.00;100948.56;4951429;29;20262;-42
2024/01/19 10:05:53;;;;;;;12.68;1.40;;;;;;;0.33;100.00;100957.28;4956148;28;20289;-43
2024/01/19 10:08:19;;;;;;;8.20;1.83;;;;;;;0.31;100.00;100959.00;4965711;28;20734;-42
2024/01/19 10:10:45;;;;;;;8.70;1.70;;;;;;;0.29;100.00;100973.06;4952545;28;20210;-44
2024/01/19 10:13:11;;;;;;;9.43;1.50;;;;;;;0.50;100.00;100965.25;4951039;29;20533;-45
2024/01/19 10:15:37;;;;;;;2.92;0.90;;;;;;;0.68;100.00;100975.03;4956010;28;20234;-46
2024/01/19 10:18:05;;;;;;;3.55;1.35;;;;;;;0.48;100.00;100968.75;4959801;28;20238;-44
2024/01/19 10:20:31;;;;;;;3.28;1.50;;;;;;;0.57;100.00;100971.44;4955490;28;20175;-43
2024/01/19 10:22:56;;;;;;;5.93;2.03;;;;;;;0.76;100.00;100968.00;4959559;28;20190;-43
2024/01/19 10:25:22;;;;;;;6.40;1.35;;;;;;;0.73;100.00;100982.94;4957423;28;20237;-47
2024/01/19 10:27:51;;;;;;;4.93;1.35;;;;;;;0.89;100.00;100981.25;4954697;29;20178;-40
2024/01/19 10:30:29;;;;;;;10.18;1.63;;;;;;;0.81;100.00;100984.75;4954573;28;20273;-42
2024/01/19 10:33:06;;;;;;;11.13;1.60;;;;;;;0.80;100.00;100987.38;4959149;28;20649;-41
2024/01/19 10:35:32;;;;;;;4.50;1.58;;;;;;;1.04;100.00;100989.22;4956395;28;20258;-42
2024/01/19 10:38:05;;;;;;;7.80;1.33;;;;;;;0.88;100.00;100990.06;4957318;28;20191;-45
2024/01/19 10:40:33;;;;;;;5.10;1.15;;;;;;;1.06;100.00;100994.50;4953069;28;20178;-41
2024/01/19 10:42:58;;;;;;;10.45;1.15;;;;;;;1.16;100.00;100994.53;4955059;28;20193;-43
2024/01/19 10:45:28;;;;;;;5.53;1.20;;;;;;;1.14;100.00;101000.69;4953172;28;20245;-44
2024/01/19 10:47:56;;;;;;;8.63;1.20;;;;;;;1.24;100.00;101003.34;4954483;29;20195;-42
2024/01/19 10:50:25;;;;;;;4.25;1.40;;;;;;;1.29;100.00;101005.09;4955150;28;20651;-43
2024/01/19 10:52:52;;;;;;;7.45;1.20;;;;;;;1.38;100.00;101006.03;4952504;29;20174;-42
2024/01/19 10:55:26;;;;;;;8.13;1.42;;;;;;;1.28;100.00;101004.25;4954002;28;20217;-45
2024/01/19 10:58:05;;;;;;;4.00;0.90;;;;;;;1.46;100.00;101008.66;4959462;28;20190;-42
2024/01/19 11:00:30;;;;;;;4.57;1.08;;;;;;;1.34;100.00;101012.19;4947658;29;20182;-44
2024/01/19 11:02:58;;;;;;;5.50;1.02;;;;;;;1.42;100.00;100998.97;4937009;29;20201;-43
2024/01/19 11:05:24;;;;;;;6.57;1.27;;;;;;;1.34;100.00;101004.25;4954090;28;20214;-43
2024/01/19 11:07:56;;;;;;;8.77;1.02;;;;;;;1.28;100.00;101004.25;4954626;28;20190;-43
2024/01/19 11:10:23;;;;;;;7.63;1.20;;;;;;;1.31;100.00;101000.72;4962169;28;20215;-42
2024/01/19 11:12:56;;;;;;;5.00;1.35;;;;;;;1.42;100.00;101006.91;4954365;29;20190;-43
2024/01/19 11:15:35;;;;;;;4.93;0.98;;;;;;;1.50;100.00;101001.66;4960997;28;20319;-42
2024/01/19 11:18:03;;;;;;;7.60;1.58;;;;;;;1.36;100.00;101002.50;4954640;29;20266;-43
2024/01/19 11:20:31;;;;;;;5.75;1.10;;;;;;;1.47;100.00;100997.25;4949523;28;20197;-42
2024/01/19 11:22:57;;;;;;;3.50;0.80;;;;;;;1.44;100.00;100995.50;4954641;29;20198;-42
2024/01/19 11:25:58;;;;;;;3.05;0.85;;;;;;;1.37;100.00;101008.66;4954021;29;20253;-44